Kahloke — CZ3845 — position and weather

sailwx.info

Track history (hours):
 
Tides and Currents Weather Stations Pressure Air Temp Water Temp Dewpoint Dewpoint Depression Visibility Wind Speed Wind Dir Waves Ship Positions

Kahloke

Last reported at 2016-Dec-08 13:32 UTC. Time now 2016-Dec-08 14:17 UTC.
Position N 49°47' W 124°11'.

Length 54 m; draft 2 m.

Type: Passenger vessel. MMSI: 316001236.

Date/timePositionNaut miles runAvg speedWind from/ knotsBaromVisibWave heightAir tempDewpointWater temp
2016-Dec-08 13:32N 49°47' W 124°11'0 0.0
2016-Dec-08 12:29N 49°47' W 124°11'2684.0
2016-Dec-08 12:10N 49°31' W 124°42'2640.9
2016-Dec-08 11:32N 49°47' W 124°11'2620.7
2016-Dec-08 10:16N 49°31' W 124°42'0 0.0
2016-Dec-08 09:22N 49°31' W 124°42'0 0.0
2016-Dec-08 07:22N 49°31' W 124°42'0 0.0
2016-Dec-08 06:10N 49°31' W 124°42'0 0.0
2016-Dec-08 05:22N 49°31' W 124°42'0 0.0
2016-Dec-08 04:28N 49°31' W 124°42'0 0.0
2016-Dec-08 03:28N 49°31' W 124°42'1 0.9
2016-Dec-08 02:17N 49°30' W 124°43'0 0.0
2016-Dec-08 01:28N 49°30' W 124°43'1 0.8
2016-Dec-08 00:15N 49°31' W 124°42'1 0.9
2016-Dec-07 23:13N 49°30' W 124°43'0 0.0
2016-Dec-07 22:27N 49°30' W 124°43'1 0.3
2016-Dec-07 20:09N 49°30' W 124°42'1 0.4
2016-Dec-07 18:20N 49°30' W 124°43'2733.9
2016-Dec-07 17:32N 49°47' W 124°11'2784.6
2016-Dec-07 17:13N 49°30' W 124°43'1 0.7
2016-Dec-07 16:14N 49°30' W 124°42'0 0.4
2016-Dec-07 15:31N 49°31' W 124°42'0 0.0
2016-Dec-07 14:32N 49°31' W 124°42'0 0.0
2016-Dec-07 13:32N 49°31' W 124°42'0 0.0
2016-Dec-07 12:32N 49°31' W 124°42'2673.4
2016-Dec-07 12:11N 49°47' W 124°11'2640.7
2016-Dec-07 11:33N 49°31' W 124°42'0 0.0
2016-Dec-07 10:32N 49°31' W 124°42'0 0.0
2016-Dec-07 09:32N 49°31' W 124°42'0 0.0
2016-Dec-07 08:26N 49°31' W 124°42'0 0.0
2016-Dec-07 07:32N 49°31' W 124°42'0 0.0
2016-Dec-07 06:33N 49°31' W 124°42'0 0.0
2016-Dec-07 05:33N 49°31' W 124°42'1 0.3
2016-Dec-07 02:33N 49°30' W 124°43'0 0.0
2016-Dec-07 01:25N 49°30' W 124°43'0 0.0
2016-Dec-07 00:25N 49°30' W 124°43'0 0.0
2016-Dec-06 23:11N 49°30' W 124°43'0 0.2
2016-Dec-06 22:28N 49°30' W 124°42'0 0.1
2016-Dec-06 21:28N 49°30' W 124°43'1 0.2
2016-Dec-06 18:04N 49°30' W 124°42'1 0.9
2016-Dec-06 17:12N 49°30' W 124°43'1 1.1
2016-Dec-06 16:33N 49°30' W 124°42'0 0.2
2016-Dec-06 15:32N 49°31' W 124°42'0 0.1
2016-Dec-06 14:28N 49°31' W 124°42'0 0.0
2016-Dec-06 13:28N 49°31' W 124°42'0 0.0
2016-Dec-06 12:33N 49°31' W 124°42'0 0.0
2016-Dec-06 11:34N 49°31' W 124°42'0 0.0
2016-Dec-06 10:28N 49°31' W 124°42'0 0.0
2016-Dec-06 09:34N 49°31' W 124°42'0 0.0
2016-Dec-06 08:33N 49°31' W 124°42'0 0.0
2016-Dec-06 07:34N 49°31' W 124°42'2617.7
2016-Dec-06 06:05N 49°47' W 124°11'2641.8
2016-Dec-06 05:28N 49°31' W 124°42'0 0.0
2016-Dec-06 04:34N 49°31' W 124°42'0 0.0
2016-Dec-06 03:33N 49°31' W 124°42'2695.3
2016-Dec-06 03:17N 49°47' W 124°11'2737.0
2016-Dec-06 02:33N 49°30' W 124°43'0 0.0
2016-Dec-06 01:30N 49°30' W 124°43'0 0.0
2016-Dec-06 00:33N 49°30' W 124°43'0 0.0
2016-Dec-05 23:30N 49°30' W 124°43'0 0.0
2016-Dec-05 22:33N 49°30' W 124°43'2726.3
2016-Dec-05 21:32N 49°47' W 124°11'2726.8
2016-Dec-05 20:32N 49°30' W 124°43'27184.5
2016-Dec-05 20:23N 49°47' W 124°11'2722.8
2016-Dec-05 19:12N 49°30' W 124°42'27217.0
2016-Dec-05 19:05N 49°47' W 124°11'0 0.0
2016-Dec-05 18:11N 49°47' W 124°11'271719.7
2016-Dec-05 18:10N 49°30' W 124°42'0 0.3
2016-Dec-05 17:27N 49°30' W 124°43'1 0.6
2016-Dec-05 16:14N 49°30' W 124°42'0 0.3
2016-Dec-05 15:31N 49°31' W 124°42'0 0.0
2016-Dec-05 12:29N 49°31' W 124°42'0 0.0
2016-Dec-05 11:29N 49°31' W 124°42'0 0.0
2016-Dec-05 09:11N 49°31' W 124°42'2625.0
2016-Dec-05 08:08N 49°47' W 124°11'2614.1
2016-Dec-05 06:17N 49°31' W 124°42'0 0.0
2016-Dec-05 05:29N 49°31' W 124°42'0 0.0
2016-Dec-05 03:05N 49°31' W 124°42'1 1.8
2016-Dec-05 02:30N 49°30' W 124°43'27232.9
2016-Dec-05 02:23N 49°47' W 124°11'2732.5
2016-Dec-05 01:33N 49°30' W 124°43'27156.8
2016-Dec-05 01:23N 49°47' W 124°11'2732.6
2016-Dec-05 00:33N 49°30' W 124°43'27217.7
2016-Dec-05 00:26N 49°47' W 124°11'2730.7
2016-Dec-04 23:33N 49°30' W 124°43'27368.4
2016-Dec-04 23:29N 49°47' W 124°11'2729.0
2016-Dec-04 22:33N 49°30' W 124°43'271153.5
2016-Dec-04 22:32N 49°47' W 124°11'2727.5
2016-Dec-04 21:33N 49°30' W 124°43'271153.4
2016-Dec-04 21:32N 49°47' W 124°11'2726.7
2016-Dec-04 20:32N 49°30' W 124°43'27287.5
2016-Dec-04 20:26N 49°47' W 124°11'0 0.0
2016-Dec-04 19:32N 49°47' W 124°11'27113.2
2016-Dec-04 19:18N 49°30' W 124°43'0 0.0
2016-Dec-04 18:33N 49°30' W 124°43'271153.4
2016-Dec-04 18:32N 49°47' W 124°11'0 0.0
2016-Dec-04 17:32N 49°47' W 124°11'2787.6
2016-Dec-04 17:14N 49°30' W 124°43'2738.9
2016-Dec-04 16:32N 49°47' W 124°11'0 0.0
2016-Dec-04 15:32N 49°47' W 124°11'0 0.0
2016-Dec-04 14:32N 49°47' W 124°11'26138.7
2016-Dec-04 14:21N 49°31' W 124°42'0 0.0
2016-Dec-04 13:33N 49°31' W 124°42'26425.6
2016-Dec-04 13:29N 49°47' W 124°11'2627.8
2016-Dec-04 12:33N 49°31' W 124°42'262239.4
2016-Dec-04 12:32N 49°47' W 124°11'0 0.0
2016-Dec-04 11:32N 49°47' W 124°11'26296.7
2016-Dec-04 11:27N 49°31' W 124°42'2628.6
2016-Dec-04 10:32N 49°47' W 124°11'26295.8
2016-Dec-04 10:27N 49°31' W 124°42'0 0.0
2016-Dec-04 09:33N 49°31' W 124°42'262187.3
2016-Dec-04 09:32N 49°47' W 124°11'0 0.0
2016-Dec-04 08:32N 49°47' W 124°11'0 0.0
2016-Dec-04 07:32N 49°47' W 124°11'0 0.0
2016-Dec-04 06:32N 49°47' W 124°11'0 0.0
2016-Dec-04 05:32N 49°47' W 124°11'0 0.0
2016-Dec-04 04:32N 49°47' W 124°11'0 0.0
2016-Dec-04 03:32N 49°47' W 124°11'26138.9
2016-Dec-04 03:21N 49°31' W 124°42'2632.2
2016-Dec-04 02:32N 49°47' W 124°11'27300.9
2016-Dec-04 02:27N 49°30' W 124°43'2729.6
2016-Dec-04 01:32N 49°47' W 124°11'27502.0
2016-Dec-04 01:29N 49°30' W 124°43'2728.4
2016-Dec-04 00:32N 49°47' W 124°11'27266.9
2016-Dec-04 00:26N 49°30' W 124°43'2729.9
2016-Dec-03 23:32N 49°47' W 124°11'27108.0
2016-Dec-03 23:17N 49°30' W 124°43'2735.8
2016-Dec-03 22:32N 49°47' W 124°11'27617.1
2016-Dec-03 22:29N 49°30' W 124°43'0 0.0
2016-Dec-03 21:33N 49°30' W 124°43'271113.6
2016-Dec-03 21:32N 49°47' W 124°11'2727.6
2016-Dec-03 20:33N 49°30' W 124°43'271126.6
2016-Dec-03 20:32N 49°47' W 124°11'0 0.0
2016-Dec-03 19:32N 49°47' W 124°11'27171.8
2016-Dec-03 19:23N 49°30' W 124°43'2730.1
2016-Dec-03 18:29N 49°47' W 124°11'272201.9
2016-Dec-03 18:28N 49°30' W 124°43'0 0.0
2016-Dec-03 17:33N 49°30' W 124°43'27375.5
2016-Dec-03 17:29N 49°47' W 124°11'2628.2
2016-Dec-03 16:33N 49°31' W 124°42'261161.2
2016-Dec-03 16:32N 49°47' W 124°11'0 0.0
2016-Dec-03 15:32N 49°47' W 124°11'26121.7
2016-Dec-03 15:19N 49°31' W 124°42'2633.3
2016-Dec-03 14:32N 49°47' W 124°11'261679.6
2016-Dec-03 14:31N 49°31' W 124°42'2625.3
2016-Dec-03 13:29N 49°47' W 124°11'0 0.0
2016-Dec-03 12:32N 49°47' W 124°11'0 0.0
2016-Dec-03 11:32N 49°47' W 124°11'26227.7
2016-Dec-03 11:25N 49°31' W 124°42'2629.5
2016-Dec-03 10:32N 49°47' W 124°11'26121.7
2016-Dec-03 10:19N 49°31' W 124°42'0 0.0
2016-Dec-03 09:31N 49°31' W 124°42'26309.4
2016-Dec-03 09:26N 49°47' W 124°11'0 0.0
2016-Dec-03 08:32N 49°47' W 124°11'261621.7
2016-Dec-03 08:31N 49°31' W 124°42'2626.6
2016-Dec-03 07:32N 49°47' W 124°11'26226.1
2016-Dec-03 07:25N 49°31' W 124°42'2629.5
2016-Dec-03 06:32N 49°47' W 124°11'26227.7
2016-Dec-03 06:25N 49°31' W 124°42'2629.5
2016-Dec-03 05:32N 49°47' W 124°11'261383.2
2016-Dec-03 05:31N 49°31' W 124°42'2626.6
2016-Dec-03 04:32N 49°47' W 124°11'271562.6
2016-Dec-03 04:31N 49°30' W 124°43'2727.4
2016-Dec-03 03:32N 49°47' W 124°11'2727.3
2016-Dec-03 02:33N 49°30' W 124°43'27421.2
2016-Dec-03 02:29N 49°47' W 124°11'0 0.0
2016-Dec-03 01:32N 49°47' W 124°11'27132.0
2016-Dec-03 01:20N 49°30' W 124°43'0 0.0
2016-Dec-03 00:33N 49°30' W 124°43'271126.6
2016-Dec-03 00:32N 49°47' W 124°11'2727.4
2016-Dec-02 23:33N 49°30' W 124°43'271614.7
2016-Dec-02 23:32N 49°47' W 124°11'2727.4
2016-Dec-02 22:33N 49°30' W 124°43'271384.1
2016-Dec-02 22:32N 49°47' W 124°11'2626.7
2016-Dec-02 21:33N 49°31' W 124°42'261288.4
2016-Dec-02 21:32N 49°47' W 124°11'2626.2
2016-Dec-02 20:32N 49°31' W 124°42'26250.8
2016-Dec-02 20:26N 49°47' W 124°11'2730.7
2016-Dec-02 19:34N 49°30' W 124°43'271088.6
2016-Dec-02 19:32N 49°47' W 124°11'2727.5
2016-Dec-02 18:33N 49°30' W 124°43'271211.0
2016-Dec-02 18:32N 49°47' W 124°11'2727.4
2016-Dec-02 17:33N 49°30' W 124°43'0 0.0
2016-Dec-02 16:33N 49°30' W 124°43'27387.5
2016-Dec-02 16:29N 49°47' W 124°11'2628.1
2016-Dec-02 15:33N 49°30' W 124°42'261783.3
2016-Dec-02 15:32N 49°47' W 124°11'0 0.0
2016-Dec-02 14:32N 49°47' W 124°11'0 0.0
2016-Dec-02 13:32N 49°47' W 124°11'0 0.0
2016-Dec-02 12:32N 49°47' W 124°11'0 0.0
2016-Dec-02 11:32N 49°47' W 124°11'0 0.0
2016-Dec-02 10:29N 49°47' W 124°11'0 0.0
2016-Dec-02 09:32N 49°47' W 124°11'26128.0
2016-Dec-02 09:20N 49°31' W 124°42'2630.9
2016-Dec-02 08:29N 49°47' W 124°11'0 0.0
2016-Dec-02 07:32N 49°47' W 124°11'266718.3
2016-Dec-02 07:32N 49°31' W 124°42'2626.2
2016-Dec-02 06:32N 49°47' W 124°11'0 0.0
2016-Dec-02 05:29N 49°47' W 124°11'0 0.0
2016-Dec-02 04:29N 49°47' W 124°11'0 0.0
2016-Dec-02 03:29N 49°47' W 124°11'26250.1
2016-Dec-02 03:23N 49°31' W 124°42'1 1.2
2016-Dec-02 02:33N 49°30' W 124°43'271642.1
2016-Dec-02 02:32N 49°47' W 124°11'2727.5
2016-Dec-02 01:33N 49°30' W 124°43'27374.1
2016-Dec-02 01:29N 49°47' W 124°11'2728.7
2016-Dec-02 00:33N 49°30' W 124°43'27167.0
2016-Dec-02 00:23N 49°47' W 124°11'2732.1
2016-Dec-01 23:33N 49°30' W 124°43'272363.0
2016-Dec-01 23:32N 49°47' W 124°11'2727.3
2016-Dec-01 22:33N 49°30' W 124°43'27419.4
2016-Dec-01 22:29N 49°47' W 124°11'2728.9
2016-Dec-01 21:33N 49°30' W 124°43'27387.5
2016-Dec-01 21:29N 49°47' W 124°11'2728.9
2016-Dec-01 20:33N 49°30' W 124°43'271384.1
2016-Dec-01 20:32N 49°47' W 124°11'2727.5
2016-Dec-01 19:33N 49°30' W 124°43'271211.0
2016-Dec-01 19:32N 49°47' W 124°11'2727.5
2016-Dec-01 18:33N 49°30' W 124°43'27158.6
2016-Dec-01 18:23N 49°47' W 124°11'2722.3
2016-Dec-01 17:11N 49°30' W 124°42'1 1.1
2016-Dec-01 16:33N 49°31' W 124°42'0 0.1
2016-Dec-01 15:31N 49°31' W 124°42'0 0.1
2016-Dec-01 13:08N 49°31' W 124°42'0 0.0
2016-Dec-01 12:26N 49°31' W 124°42'0 0.0
2016-Dec-01 11:32N 49°31' W 124°42'0 0.0
2016-Dec-01 10:32N 49°31' W 124°42'0 0.0
2016-Dec-01 09:32N 49°31' W 124°42'0 0.0
2016-Dec-01 08:32N 49°31' W 124°42'0 0.0
2016-Dec-01 07:32N 49°31' W 124°42'0 0.0
2016-Dec-01 06:32N 49°31' W 124°42'0 0.0
2016-Dec-01 05:26N 49°31' W 124°42'0 0.0
2016-Dec-01 04:08N 49°31' W 124°42'0 0.0
2016-Dec-01 03:20N 49°31' W 124°42'0 0.1
2016-Dec-01 02:06N 49°31' W 124°42'1 0.8
2016-Dec-01 01:13N 49°30' W 124°42'0 0.2
2016-Dec-01 00:15N 49°30' W 124°42'0 0.1
2016-Nov-30 20:09N 49°30' W 124°42'0 0.0
2016-Nov-30 19:08N 49°30' W 124°42'0 0.2
2016-Nov-30 18:07N 49°30' W 124°42'0 0.2
2016-Nov-30 17:08N 49°30' W 124°43'0 0.4
2016-Nov-30 16:32N 49°30' W 124°42'1 0.1
2016-Nov-30 03:23N 49°31' W 124°42'1 0.8
2016-Nov-30 02:25N 49°30' W 124°43'0 0.1
2016-Nov-30 01:11N 49°30' W 124°42'0 0.1
2016-Nov-30 00:20N 49°30' W 124°42'0 0.0
2016-Nov-29 23:09N 49°30' W 124°42'0 0.8
2016-Nov-29 22:33N 49°30' W 124°42'0 0.2
2016-Nov-29 20:08N 49°30' W 124°42'0 0.0
2016-Nov-29 19:08N 49°30' W 124°42'0 0.1
2016-Nov-29 18:10N 49°30' W 124°42'0 0.0
2016-Nov-29 17:10N 49°30' W 124°42'0 0.2
2016-Nov-29 16:33N 49°30' W 124°42'0 0.3
2016-Nov-29 15:33N 49°30' W 124°42'0 0.1
2016-Nov-29 11:28N 49°31' W 124°42'0 0.0
2016-Nov-29 10:28N 49°31' W 124°42'0 0.0
2016-Nov-29 09:34N 49°31' W 124°42'0 0.0
2016-Nov-29 08:28N 49°31' W 124°42'0 0.0
2016-Nov-29 07:33N 49°31' W 124°42'0 0.0
2016-Nov-29 06:33N 49°31' W 124°42'0 0.0
2016-Nov-29 05:34N 49°31' W 124°42'0 0.0
2016-Nov-29 04:33N 49°31' W 124°42'0 0.0
2016-Nov-29 03:33N 49°31' W 124°42'0 0.1
2016-Nov-29 02:09N 49°31' W 124°42'0 0.0
2016-Nov-29 01:09N 49°31' W 124°42'1 0.9
2016-Nov-29 00:20N 49°30' W 124°42'1 0.6
2016-Nov-28 23:04N 49°31' W 124°42'0 0.2
2016-Nov-28 20:07N 49°30' W 124°42'0 0.2
2016-Nov-28 19:10N 49°30' W 124°42'1 0.5
2016-Nov-28 18:03N 49°30' W 124°42'0 0.2
2016-Nov-28 17:07N 49°30' W 124°42'0 0.1
2016-Nov-28 16:33N 49°30' W 124°42'0 0.3
2016-Nov-28 15:32N 49°31' W 124°42'0 0.1
2016-Nov-28 14:33N 49°31' W 124°42'  
Track history (hours):
 
Tides and Currents Weather Stations Pressure Air Temp Water Temp Dewpoint Dewpoint Depression Visibility Wind Speed Wind Dir Waves Ship Positions

Kahloke

Last reported at 2016-Dec-08 13:32 UTC. Time now 2016-Dec-08 14:17 UTC.
Position N 49°47' W 124°11'.

Length 54 m; draft 2 m.

Type: Passenger vessel. MMSI: 316001236.

Date/timePositionNaut miles runAvg speedWind from/ knotsBaromVisibWave heightAir tempDewpointWater temp
2016-Dec-08 13:32N 49°47' W 124°11'0 0.0
2016-Dec-08 12:29N 49°47' W 124°11'2684.0
2016-Dec-08 12:10N 49°31' W 124°42'2640.9
2016-Dec-08 11:32N 49°47' W 124°11'2620.7
2016-Dec-08 10:16N 49°31' W 124°42'0 0.0
2016-Dec-08 09:22N 49°31' W 124°42'0 0.0
2016-Dec-08 07:22N 49°31' W 124°42'0 0.0
2016-Dec-08 06:10N 49°31' W 124°42'0 0.0
2016-Dec-08 05:22N 49°31' W 124°42'0 0.0
2016-Dec-08 04:28N 49°31' W 124°42'0 0.0
2016-Dec-08 03:28N 49°31' W 124°42'1 0.9
2016-Dec-08 02:17N 49°30' W 124°43'0 0.0
2016-Dec-08 01:28N 49°30' W 124°43'1 0.8
2016-Dec-08 00:15N 49°31' W 124°42'1 0.9
2016-Dec-07 23:13N 49°30' W 124°43'0 0.0
2016-Dec-07 22:27N 49°30' W 124°43'1 0.3
2016-Dec-07 20:09N 49°30' W 124°42'1 0.4
2016-Dec-07 18:20N 49°30' W 124°43'2733.9
2016-Dec-07 17:32N 49°47' W 124°11'2784.6
2016-Dec-07 17:13N 49°30' W 124°43'1 0.7
2016-Dec-07 16:14N 49°30' W 124°42'0 0.4
2016-Dec-07 15:31N 49°31' W 124°42'0 0.0
2016-Dec-07 14:32N 49°31' W 124°42'0 0.0
2016-Dec-07 13:32N 49°31' W 124°42'0 0.0
2016-Dec-07 12:32N 49°31' W 124°42'2673.4
2016-Dec-07 12:11N 49°47' W 124°11'2640.7
2016-Dec-07 11:33N 49°31' W 124°42'0 0.0
2016-Dec-07 10:32N 49°31' W 124°42'0 0.0
2016-Dec-07 09:32N 49°31' W 124°42'0 0.0
2016-Dec-07 08:26N 49°31' W 124°42'0 0.0
2016-Dec-07 07:32N 49°31' W 124°42'0 0.0
2016-Dec-07 06:33N 49°31' W 124°42'0 0.0
2016-Dec-07 05:33N 49°31' W 124°42'1 0.3
2016-Dec-07 02:33N 49°30' W 124°43'0 0.0
2016-Dec-07 01:25N 49°30' W 124°43'0 0.0
2016-Dec-07 00:25N 49°30' W 124°43'0 0.0
2016-Dec-06 23:11N 49°30' W 124°43'0 0.2
2016-Dec-06 22:28N 49°30' W 124°42'0 0.1
2016-Dec-06 21:28N 49°30' W 124°43'1 0.2
2016-Dec-06 18:04N 49°30' W 124°42'1 0.9
2016-Dec-06 17:12N 49°30' W 124°43'1 1.1
2016-Dec-06 16:33N 49°30' W 124°42'0 0.2
2016-Dec-06 15:32N 49°31' W 124°42'0 0.1
2016-Dec-06 14:28N 49°31' W 124°42'0 0.0
2016-Dec-06 13:28N 49°31' W 124°42'0 0.0
2016-Dec-06 12:33N 49°31' W 124°42'0 0.0
2016-Dec-06 11:34N 49°31' W 124°42'0 0.0
2016-Dec-06 10:28N 49°31' W 124°42'0 0.0
2016-Dec-06 09:34N 49°31' W 124°42'0 0.0
2016-Dec-06 08:33N 49°31' W 124°42'0 0.0
2016-Dec-06 07:34N 49°31' W 124°42'2617.7
2016-Dec-06 06:05N 49°47' W 124°11'2641.8
2016-Dec-06 05:28N 49°31' W 124°42'0 0.0
2016-Dec-06 04:34N 49°31' W 124°42'0 0.0
2016-Dec-06 03:33N 49°31' W 124°42'2695.3
2016-Dec-06 03:17N 49°47' W 124°11'2737.0
2016-Dec-06 02:33N 49°30' W 124°43'0 0.0
2016-Dec-06 01:30N 49°30' W 124°43'0 0.0
2016-Dec-06 00:33N 49°30' W 124°43'0 0.0
2016-Dec-05 23:30N 49°30' W 124°43'0 0.0
2016-Dec-05 22:33N 49°30' W 124°43'2726.3
2016-Dec-05 21:32N 49°47' W 124°11'2726.8
2016-Dec-05 20:32N 49°30' W 124°43'27184.5
2016-Dec-05 20:23N 49°47' W 124°11'2722.8
2016-Dec-05 19:12N 49°30' W 124°42'27217.0
2016-Dec-05 19:05N 49°47' W 124°11'0 0.0
2016-Dec-05 18:11N 49°47' W 124°11'271719.7
2016-Dec-05 18:10N 49°30' W 124°42'0 0.3
2016-Dec-05 17:27N 49°30' W 124°43'1 0.6
2016-Dec-05 16:14N 49°30' W 124°42'0 0.3
2016-Dec-05 15:31N 49°31' W 124°42'0 0.0
2016-Dec-05 12:29N 49°31' W 124°42'0 0.0
2016-Dec-05 11:29N 49°31' W 124°42'0 0.0
2016-Dec-05 09:11N 49°31' W 124°42'2625.0
2016-Dec-05 08:08N 49°47' W 124°11'2614.1
2016-Dec-05 06:17N 49°31' W 124°42'0 0.0
2016-Dec-05 05:29N 49°31' W 124°42'0 0.0
2016-Dec-05 03:05N 49°31' W 124°42'1 1.8
2016-Dec-05 02:30N 49°30' W 124°43'27232.9
2016-Dec-05 02:23N 49°47' W 124°11'2732.5
2016-Dec-05 01:33N 49°30' W 124°43'27156.8
2016-Dec-05 01:23N 49°47' W 124°11'2732.6
2016-Dec-05 00:33N 49°30' W 124°43'27217.7
2016-Dec-05 00:26N 49°47' W 124°11'2730.7
2016-Dec-04 23:33N 49°30' W 124°43'27368.4
2016-Dec-04 23:29N 49°47' W 124°11'2729.0
2016-Dec-04 22:33N 49°30' W 124°43'271153.5
2016-Dec-04 22:32N 49°47' W 124°11'2727.5
2016-Dec-04 21:33N 49°30' W 124°43'271153.4
2016-Dec-04 21:32N 49°47' W 124°11'2726.7
2016-Dec-04 20:32N 49°30' W 124°43'27287.5
2016-Dec-04 20:26N 49°47' W 124°11'0 0.0
2016-Dec-04 19:32N 49°47' W 124°11'27113.2
2016-Dec-04 19:18N 49°30' W 124°43'0 0.0
2016-Dec-04 18:33N 49°30' W 124°43'271153.4
2016-Dec-04 18:32N 49°47' W 124°11'0 0.0
2016-Dec-04 17:32N 49°47' W 124°11'2787.6
2016-Dec-04 17:14N 49°30' W 124°43'2738.9
2016-Dec-04 16:32N 49°47' W 124°11'0 0.0
2016-Dec-04 15:32N 49°47' W 124°11'0 0.0
2016-Dec-04 14:32N 49°47' W 124°11'26138.7
2016-Dec-04 14:21N 49°31' W 124°42'0 0.0
2016-Dec-04 13:33N 49°31' W 124°42'26425.6
2016-Dec-04 13:29N 49°47' W 124°11'2627.8
2016-Dec-04 12:33N 49°31' W 124°42'262239.4
2016-Dec-04 12:32N 49°47' W 124°11'0 0.0
2016-Dec-04 11:32N 49°47' W 124°11'26296.7
2016-Dec-04 11:27N 49°31' W 124°42'2628.6
2016-Dec-04 10:32N 49°47' W 124°11'26295.8
2016-Dec-04 10:27N 49°31' W 124°42'0 0.0
2016-Dec-04 09:33N 49°31' W 124°42'262187.3
2016-Dec-04 09:32N 49°47' W 124°11'0 0.0
2016-Dec-04 08:32N 49°47' W 124°11'0 0.0
2016-Dec-04 07:32N 49°47' W 124°11'0 0.0
2016-Dec-04 06:32N 49°47' W 124°11'0 0.0
2016-Dec-04 05:32N 49°47' W 124°11'0 0.0
2016-Dec-04 04:32N 49°47' W 124°11'0 0.0
2016-Dec-04 03:32N 49°47' W 124°11'26138.9
2016-Dec-04 03:21N 49°31' W 124°42'2632.2
2016-Dec-04 02:32N 49°47' W 124°11'27300.9
2016-Dec-04 02:27N 49°30' W 124°43'2729.6
2016-Dec-04 01:32N 49°47' W 124°11'27502.0
2016-Dec-04 01:29N 49°30' W 124°43'2728.4
2016-Dec-04 00:32N 49°47' W 124°11'27266.9
2016-Dec-04 00:26N 49°30' W 124°43'2729.9
2016-Dec-03 23:32N 49°47' W 124°11'27108.0
2016-Dec-03 23:17N 49°30' W 124°43'2735.8
2016-Dec-03 22:32N 49°47' W 124°11'27617.1
2016-Dec-03 22:29N 49°30' W 124°43'0 0.0
2016-Dec-03 21:33N 49°30' W 124°43'271113.6
2016-Dec-03 21:32N 49°47' W 124°11'2727.6
2016-Dec-03 20:33N 49°30' W 124°43'271126.6
2016-Dec-03 20:32N 49°47' W 124°11'0 0.0
2016-Dec-03 19:32N 49°47' W 124°11'27171.8
2016-Dec-03 19:23N 49°30' W 124°43'2730.1
2016-Dec-03 18:29N 49°47' W 124°11'272201.9
2016-Dec-03 18:28N 49°30' W 124°43'0 0.0
2016-Dec-03 17:33N 49°30' W 124°43'27375.5
2016-Dec-03 17:29N 49°47' W 124°11'2628.2
2016-Dec-03 16:33N 49°31' W 124°42'261161.2
2016-Dec-03 16:32N 49°47' W 124°11'0 0.0
2016-Dec-03 15:32N 49°47' W 124°11'26121.7
2016-Dec-03 15:19N 49°31' W 124°42'2633.3
2016-Dec-03 14:32N 49°47' W 124°11'261679.6
2016-Dec-03 14:31N 49°31' W 124°42'2625.3
2016-Dec-03 13:29N 49°47' W 124°11'0 0.0
2016-Dec-03 12:32N 49°47' W 124°11'0 0.0
2016-Dec-03 11:32N 49°47' W 124°11'26227.7
2016-Dec-03 11:25N 49°31' W 124°42'2629.5
2016-Dec-03 10:32N 49°47' W 124°11'26121.7
2016-Dec-03 10:19N 49°31' W 124°42'0 0.0
2016-Dec-03 09:31N 49°31' W 124°42'26309.4
2016-Dec-03 09:26N 49°47' W 124°11'0 0.0
2016-Dec-03 08:32N 49°47' W 124°11'261621.7
2016-Dec-03 08:31N 49°31' W 124°42'2626.6
2016-Dec-03 07:32N 49°47' W 124°11'26226.1
2016-Dec-03 07:25N 49°31' W 124°42'2629.5
2016-Dec-03 06:32N 49°47' W 124°11'26227.7
2016-Dec-03 06:25N 49°31' W 124°42'2629.5
2016-Dec-03 05:32N 49°47' W 124°11'261383.2
2016-Dec-03 05:31N 49°31' W 124°42'2626.6
2016-Dec-03 04:32N 49°47' W 124°11'271562.6
2016-Dec-03 04:31N 49°30' W 124°43'2727.4
2016-Dec-03 03:32N 49°47' W 124°11'2727.3
2016-Dec-03 02:33N 49°30' W 124°43'27421.2
2016-Dec-03 02:29N 49°47' W 124°11'0 0.0
2016-Dec-03 01:32N 49°47' W 124°11'27132.0
2016-Dec-03 01:20N 49°30' W 124°43'0 0.0
2016-Dec-03 00:33N 49°30' W 124°43'271126.6
2016-Dec-03 00:32N 49°47' W 124°11'2727.4
2016-Dec-02 23:33N 49°30' W 124°43'271614.7
2016-Dec-02 23:32N 49°47' W 124°11'2727.4
2016-Dec-02 22:33N 49°30' W 124°43'271384.1
2016-Dec-02 22:32N 49°47' W 124°11'2626.7
2016-Dec-02 21:33N 49°31' W 124°42'261288.4
2016-Dec-02 21:32N 49°47' W 124°11'2626.2
2016-Dec-02 20:32N 49°31' W 124°42'26250.8
2016-Dec-02 20:26N 49°47' W 124°11'2730.7
2016-Dec-02 19:34N 49°30' W 124°43'271088.6
2016-Dec-02 19:32N 49°47' W 124°11'2727.5
2016-Dec-02 18:33N 49°30' W 124°43'271211.0
2016-Dec-02 18:32N 49°47' W 124°11'2727.4
2016-Dec-02 17:33N 49°30' W 124°43'0 0.0
2016-Dec-02 16:33N 49°30' W 124°43'27387.5
2016-Dec-02 16:29N 49°47' W 124°11'2628.1
2016-Dec-02 15:33N 49°30' W 124°42'261783.3
2016-Dec-02 15:32N 49°47' W 124°11'0 0.0
2016-Dec-02 14:32N 49°47' W 124°11'0 0.0
2016-Dec-02 13:32N 49°47' W 124°11'0 0.0
2016-Dec-02 12:32N 49°47' W 124°11'0 0.0
2016-Dec-02 11:32N 49°47' W 124°11'0 0.0
2016-Dec-02 10:29N 49°47' W 124°11'0 0.0
2016-Dec-02 09:32N 49°47' W 124°11'26128.0
2016-Dec-02 09:20N 49°31' W 124°42'2630.9
2016-Dec-02 08:29N 49°47' W 124°11'0 0.0
2016-Dec-02 07:32N 49°47' W 124°11'266718.3
2016-Dec-02 07:32N 49°31' W 124°42'2626.2
2016-Dec-02 06:32N 49°47' W 124°11'0 0.0
2016-Dec-02 05:29N 49°47' W 124°11'0 0.0
2016-Dec-02 04:29N 49°47' W 124°11'0 0.0
2016-Dec-02 03:29N 49°47' W 124°11'26250.1
2016-Dec-02 03:23N 49°31' W 124°42'1 1.2
2016-Dec-02 02:33N 49°30' W 124°43'271642.1
2016-Dec-02 02:32N 49°47' W 124°11'2727.5
2016-Dec-02 01:33N 49°30' W 124°43'27374.1
2016-Dec-02 01:29N 49°47' W 124°11'2728.7
2016-Dec-02 00:33N 49°30' W 124°43'27167.0
2016-Dec-02 00:23N 49°47' W 124°11'2732.1
2016-Dec-01 23:33N 49°30' W 124°43'272363.0
2016-Dec-01 23:32N 49°47' W 124°11'2727.3
2016-Dec-01 22:33N 49°30' W 124°43'27419.4
2016-Dec-01 22:29N 49°47' W 124°11'2728.9
2016-Dec-01 21:33N 49°30' W 124°43'27387.5
2016-Dec-01 21:29N 49°47' W 124°11'2728.9
2016-Dec-01 20:33N 49°30' W 124°43'271384.1
2016-Dec-01 20:32N 49°47' W 124°11'2727.5
2016-Dec-01 19:33N 49°30' W 124°43'271211.0
2016-Dec-01 19:32N 49°47' W 124°11'2727.5
2016-Dec-01 18:33N 49°30' W 124°43'27158.6
2016-Dec-01 18:23N 49°47' W 124°11'2722.3
2016-Dec-01 17:11N 49°30' W 124°42'1 1.1
2016-Dec-01 16:33N 49°31' W 124°42'0 0.1
2016-Dec-01 15:31N 49°31' W 124°42'0 0.1
2016-Dec-01 13:08N 49°31' W 124°42'0 0.0
2016-Dec-01 12:26N 49°31' W 124°42'0 0.0
2016-Dec-01 11:32N 49°31' W 124°42'0 0.0
2016-Dec-01 10:32N 49°31' W 124°42'0 0.0
2016-Dec-01 09:32N 49°31' W 124°42'0 0.0
2016-Dec-01 08:32N 49°31' W 124°42'0 0.0
2016-Dec-01 07:32N 49°31' W 124°42'0 0.0
2016-Dec-01 06:32N 49°31' W 124°42'0 0.0
2016-Dec-01 05:26N 49°31' W 124°42'0 0.0
2016-Dec-01 04:08N 49°31' W 124°42'0 0.0
2016-Dec-01 03:20N 49°31' W 124°42'0 0.1
2016-Dec-01 02:06N 49°31' W 124°42'1 0.8
2016-Dec-01 01:13N 49°30' W 124°42'0 0.2
2016-Dec-01 00:15N 49°30' W 124°42'0 0.1
2016-Nov-30 20:09N 49°30' W 124°42'0 0.0
2016-Nov-30 19:08N 49°30' W 124°42'0 0.2
2016-Nov-30 18:07N 49°30' W 124°42'0 0.2
2016-Nov-30 17:08N 49°30' W 124°43'0 0.4
2016-Nov-30 16:32N 49°30' W 124°42'1 0.1
2016-Nov-30 03:23N 49°31' W 124°42'1 0.8
2016-Nov-30 02:25N 49°30' W 124°43'0 0.1
2016-Nov-30 01:11N 49°30' W 124°42'0 0.1
2016-Nov-30 00:20N 49°30' W 124°42'0 0.0
2016-Nov-29 23:09N 49°30' W 124°42'0 0.8
2016-Nov-29 22:33N 49°30' W 124°42'0 0.2
2016-Nov-29 20:08N 49°30' W 124°42'0 0.0
2016-Nov-29 19:08N 49°30' W 124°42'0 0.1
2016-Nov-29 18:10N 49°30' W 124°42'0 0.0
2016-Nov-29 17:10N 49°30' W 124°42'0 0.2
2016-Nov-29 16:33N 49°30' W 124°42'0 0.3
2016-Nov-29 15:33N 49°30' W 124°42'0 0.1
2016-Nov-29 11:28N 49°31' W 124°42'0 0.0
2016-Nov-29 10:28N 49°31' W 124°42'0 0.0
2016-Nov-29 09:34N 49°31' W 124°42'0 0.0
2016-Nov-29 08:28N 49°31' W 124°42'0 0.0
2016-Nov-29 07:33N 49°31' W 124°42'0 0.0
2016-Nov-29 06:33N 49°31' W 124°42'0 0.0
2016-Nov-29 05:34N 49°31' W 124°42'0 0.0
2016-Nov-29 04:33N 49°31' W 124°42'0 0.0
2016-Nov-29 03:33N 49°31' W 124°42'0 0.1
2016-Nov-29 02:09N 49°31' W 124°42'0 0.0
2016-Nov-29 01:09N 49°31' W 124°42'1 0.9
2016-Nov-29 00:20N 49°30' W 124°42'1 0.6
2016-Nov-28 23:04N 49°31' W 124°42'0 0.2
2016-Nov-28 20:07N 49°30' W 124°42'0 0.2
2016-Nov-28 19:10N 49°30' W 124°42'1 0.5
2016-Nov-28 18:03N 49°30' W 124°42'0 0.2
2016-Nov-28 17:07N 49°30' W 124°42'0 0.1
2016-Nov-28 16:33N 49°30' W 124°42'0 0.3
2016-Nov-28 15:32N 49°31' W 124°42'0 0.1
2016-Nov-28 14:33N 49°31' W 124°42'  

Dump ship's entire track history